Terminal Aerodrome Forecast
Issued by NWS Brownsville, TX

Home | Current Version | Previous Version | Text Only | Print | Product List | Glossary On
Versions: 1 2 3 4 5 6 7 8 9 10 11 12 13 14 15 16 17 18 19 20
000
FTUS44 KBRO 232300 RRA
TAFBRO
TAF
KBRO 232342Z 2400/2424 11012KT P6SM FEW250
     FM240100 14006KT P6SM SKC
     FM240900 VRB04KT P6SM FEW015
     FM241400 16008KT P6SM FEW025
     FM241900 13013KT P6SM SCT040=

USA.gov is the U.S. government's official web portal to all federal, state and local government web resources and services.